sensor_id;sensor_type;location;lat;lon;timestamp;temperature;humidity
19050;DHT22;9657;45.940;12.840;2023-07-22T00:02:26;30.30;56.40
19050;DHT22;9657;45.940;12.840;2023-07-22T00:04:53;30.30;56.40
19050;DHT22;9657;45.940;12.840;2023-07-22T00:07:21;30.30;56.30
19050;DHT22;9657;45.940;12.840;2023-07-22T00:09:48;30.40;56.50
19050;DHT22;9657;45.940;12.840;2023-07-22T00:12:17;30.30;56.30
19050;DHT22;9657;45.940;12.840;2023-07-22T00:14:44;30.30;56.40
19050;DHT22;9657;45.940;12.840;2023-07-22T00:17:12;30.30;56.30
19050;DHT22;9657;45.940;12.840;2023-07-22T00:19:39;30.30;56.30
19050;DHT22;9657;45.940;12.840;2023-07-22T00:22:06;30.30;56.30
19050;DHT22;9657;45.940;12.840;2023-07-22T00:24:34;30.30;56.30
19050;DHT22;9657;45.940;12.840;2023-07-22T00:27:01;30.30;56.30
19050;DHT22;9657;45.940;12.840;2023-07-22T00:29:30;30.30;56.30
19050;DHT22;9657;45.940;12.840;2023-07-22T00:31:57;30.30;56.30
19050;DHT22;9657;45.940;12.840;2023-07-22T00:34:24;30.30;56.30
19050;DHT22;9657;45.940;12.840;2023-07-22T00:36:52;30.30;56.30
19050;DHT22;9657;45.940;12.840;2023-07-22T00:39:19;30.30;56.30
19050;DHT22;9657;45.940;12.840;2023-07-22T00:41:46;30.30;56.40
19050;DHT22;9657;45.940;12.840;2023-07-22T00:44:14;30.30;56.40
19050;DHT22;9657;45.940;12.840;2023-07-22T00:46:42;30.30;56.40
19050;DHT22;9657;45.940;12.840;2023-07-22T00:49:10;30.30;56.40
19050;DHT22;9657;45.940;12.840;2023-07-22T00:51:39;30.30;56.40
19050;DHT22;9657;45.940;12.840;2023-07-22T00:54:06;30.30;56.40
19050;DHT22;9657;45.940;12.840;2023-07-22T00:56:36;30.30;56.30
19050;DHT22;9657;45.940;12.840;2023-07-22T00:59:03;30.30;56.30
19050;DHT22;9657;45.940;12.840;2023-07-22T01:04:08;30.20;56.10
19050;DHT22;9657;45.940;12.840;2023-07-22T01:06:36;30.20;56.10
19050;DHT22;9657;45.940;12.840;2023-07-22T01:09:05;30.20;56.10
19050;DHT22;9657;45.940;12.840;2023-07-22T01:11:34;30.30;56.10
19050;DHT22;9657;45.940;12.840;2023-07-22T01:14:02;30.20;56.00
19050;DHT22;9657;45.940;12.840;2023-07-22T01:16:30;30.20;56.50
19050;DHT22;9657;45.940;12.840;2023-07-22T01:18:57;30.20;55.80
19050;DHT22;9657;45.940;12.840;2023-07-22T01:21:27;30.20;55.70
19050;DHT22;9657;45.940;12.840;2023-07-22T01:23:56;30.20;55.70
19050;DHT22;9657;45.940;12.840;2023-07-22T01:26:24;30.20;55.60
19050;DHT22;9657;45.940;12.840;2023-07-22T01:28:51;30.20;55.60
19050;DHT22;9657;45.940;12.840;2023-07-22T01:31:28;30.20;55.50
19050;DHT22;9657;45.940;12.840;2023-07-22T01:33:55;30.20;55.50
19050;DHT22;9657;45.940;12.840;2023-07-22T01:36:24;30.20;55.40
19050;DHT22;9657;45.940;12.840;2023-07-22T01:38:52;30.20;55.40
19050;DHT22;9657;45.940;12.840;2023-07-22T01:41:20;30.20;55.40
19050;DHT22;9657;45.940;12.840;2023-07-22T01:43:48;30.20;55.30
19050;DHT22;9657;45.940;12.840;2023-07-22T01:46:15;30.20;55.30
19050;DHT22;9657;45.940;12.840;2023-07-22T01:48:43;30.20;55.30
19050;DHT22;9657;45.940;12.840;2023-07-22T01:51:10;30.20;55.20
19050;DHT22;9657;45.940;12.840;2023-07-22T01:53:37;30.20;55.20
19050;DHT22;9657;45.940;12.840;2023-07-22T01:56:05;30.10;55.10
19050;DHT22;9657;45.940;12.840;2023-07-22T01:58:34;30.10;55.00
19050;DHT22;9657;45.940;12.840;2023-07-22T02:01:01;30.10;55.00
19050;DHT22;9657;45.940;12.840;2023-07-22T02:03:28;30.10;55.00
19050;DHT22;9657;45.940;12.840;2023-07-22T02:06:02;30.10;55.00
19050;DHT22;9657;45.940;12.840;2023-07-22T02:08:32;30.10;54.90
19050;DHT22;9657;45.940;12.840;2023-07-22T02:11:02;30.10;54.90
19050;DHT22;9657;45.940;12.840;2023-07-22T02:13:32;30.10;54.90
19050;DHT22;9657;45.940;12.840;2023-07-22T02:16:01;30.10;54.90
19050;DHT22;9657;45.940;12.840;2023-07-22T02:18:29;30.10;54.80
19050;DHT22;9657;45.940;12.840;2023-07-22T02:20:57;30.10;54.80
19050;DHT22;9657;45.940;12.840;2023-07-22T02:23:24;30.00;54.60
19050;DHT22;9657;45.940;12.840;2023-07-22T02:25:52;30.00;54.60
19050;DHT22;9657;45.940;12.840;2023-07-22T02:28:21;30.00;54.50
19050;DHT22;9657;45.940;12.840;2023-07-22T02:30:51;30.10;54.50
19050;DHT22;9657;45.940;12.840;2023-07-22T02:33:20;30.00;54.40
19050;DHT22;9657;45.940;12.840;2023-07-22T02:35:47;30.10;54.50
19050;DHT22;9657;45.940;12.840;2023-07-22T02:38:15;30.00;54.30
19050;DHT22;9657;45.940;12.840;2023-07-22T02:40:42;30.00;54.20
19050;DHT22;9657;45.940;12.840;2023-07-22T02:43:09;30.00;54.20
19050;DHT22;9657;45.940;12.840;2023-07-22T02:45:37;30.00;54.10
19050;DHT22;9657;45.940;12.840;2023-07-22T02:48:06;30.00;54.00
19050;DHT22;9657;45.940;12.840;2023-07-22T02:50:34;30.00;54.00
19050;DHT22;9657;45.940;12.840;2023-07-22T02:53:02;30.00;54.00
19050;DHT22;9657;45.940;12.840;2023-07-22T02:55:29;30.00;54.00
19050;DHT22;9657;45.940;12.840;2023-07-22T02:57:57;30.00;53.90
19050;DHT22;9657;45.940;12.840;2023-07-22T03:00:24;30.00;53.90
19050;DHT22;9657;45.940;12.840;2023-07-22T03:02:51;30.00;53.80
19050;DHT22;9657;45.940;12.840;2023-07-22T03:05:20;29.90;53.70
19050;DHT22;9657;45.940;12.840;2023-07-22T03:07:48;29.90;53.70
19050;DHT22;9657;45.940;12.840;2023-07-22T03:10:15;30.00;53.70
19050;DHT22;9657;45.940;12.840;2023-07-22T03:12:43;29.90;53.70
19050;DHT22;9657;45.940;12.840;2023-07-22T03:15:10;29.90;53.60
19050;DHT22;9657;45.940;12.840;2023-07-22T03:17:39;29.90;53.60
19050;DHT22;9657;45.940;12.840;2023-07-22T03:20:08;29.90;53.60
19050;DHT22;9657;45.940;12.840;2023-07-22T03:22:41;29.90;53.50
19050;DHT22;9657;45.940;12.840;2023-07-22T03:25:09;29.90;53.50
19050;DHT22;9657;45.940;12.840;2023-07-22T03:27:36;29.90;53.50
19050;DHT22;9657;45.940;12.840;2023-07-22T03:30:05;29.90;53.50
19050;DHT22;9657;45.940;12.840;2023-07-22T03:32:33;29.90;53.50
19050;DHT22;9657;45.940;12.840;2023-07-22T03:35:01;29.90;53.40
19050;DHT22;9657;45.940;12.840;2023-07-22T03:37:28;29.90;53.40
19050;DHT22;9657;45.940;12.840;2023-07-22T03:39:57;29.90;53.30
19050;DHT22;9657;45.940;12.840;2023-07-22T03:42:24;29.90;53.40
19050;DHT22;9657;45.940;12.840;2023-07-22T03:44:52;29.90;53.40
19050;DHT22;9657;45.940;12.840;2023-07-22T03:47:19;29.90;53.30
19050;DHT22;9657;45.940;12.840;2023-07-22T03:49:47;29.90;53.20
19050;DHT22;9657;45.940;12.840;2023-07-22T03:52:14;29.90;53.20
19050;DHT22;9657;45.940;12.840;2023-07-22T03:54:44;29.80;53.10
19050;DHT22;9657;45.940;12.840;2023-07-22T03:57:12;29.80;53.10
19050;DHT22;9657;45.940;12.840;2023-07-22T03:59:39;29.80;53.10
19050;DHT22;9657;45.940;12.840;2023-07-22T04:02:07;29.80;53.10
19050;DHT22;9657;45.940;12.840;2023-07-22T04:04:34;29.80;53.00
19050;DHT22;9657;45.940;12.840;2023-07-22T04:07:01;29.80;52.90
19050;DHT22;9657;45.940;12.840;2023-07-22T04:09:29;29.80;53.00
19050;DHT22;9657;45.940;12.840;2023-07-22T04:11:56;29.80;52.90
19050;DHT22;9657;45.940;12.840;2023-07-22T04:14:25;29.80;52.90
19050;DHT22;9657;45.940;12.840;2023-07-22T04:16:52;29.80;52.90
19050;DHT22;9657;45.940;12.840;2023-07-22T04:19:19;29.80;52.90
19050;DHT22;9657;45.940;12.840;2023-07-22T04:21:47;29.80;52.90
19050;DHT22;9657;45.940;12.840;2023-07-22T04:24:14;29.80;52.90
19050;DHT22;9657;45.940;12.840;2023-07-22T04:26:42;29.70;52.90
19050;DHT22;9657;45.940;12.840;2023-07-22T04:29:10;29.70;52.80
19050;DHT22;9657;45.940;12.840;2023-07-22T04:31:39;29.70;52.80
19050;DHT22;9657;45.940;12.840;2023-07-22T04:34:07;29.80;52.80
19050;DHT22;9657;45.940;12.840;2023-07-22T04:36:34;29.80;52.80
19050;DHT22;9657;45.940;12.840;2023-07-22T04:39:02;29.70;53.00
19050;DHT22;9657;45.940;12.840;2023-07-22T04:41:30;29.70;52.70
19050;DHT22;9657;45.940;12.840;2023-07-22T04:43:58;29.70;52.60
19050;DHT22;9657;45.940;12.840;2023-07-22T04:46:25;29.70;52.60
19050;DHT22;9657;45.940;12.840;2023-07-22T04:48:55;29.70;52.60
19050;DHT22;9657;45.940;12.840;2023-07-22T04:51:23;29.70;52.60
19050;DHT22;9657;45.940;12.840;2023-07-22T04:53:51;29.70;52.60
19050;DHT22;9657;45.940;12.840;2023-07-22T04:56:18;29.70;52.50
19050;DHT22;9657;45.940;12.840;2023-07-22T04:58:45;29.70;52.50
19050;DHT22;9657;45.940;12.840;2023-07-22T05:01:13;29.70;52.40
19050;DHT22;9657;45.940;12.840;2023-07-22T05:03:40;29.70;52.40
19050;DHT22;9657;45.940;12.840;2023-07-22T05:06:10;29.70;52.30
19050;DHT22;9657;45.940;12.840;2023-07-22T05:08:37;29.70;52.30
19050;DHT22;9657;45.940;12.840;2023-07-22T05:11:06;29.70;52.30
19050;DHT22;9657;45.940;12.840;2023-07-22T05:13:33;29.70;52.30
19050;DHT22;9657;45.940;12.840;2023-07-22T05:16:00;29.70;52.30
19050;DHT22;9657;45.940;12.840;2023-07-22T05:18:28;29.70;52.20
19050;DHT22;9657;45.940;12.840;2023-07-22T05:20:55;29.70;52.20
19050;DHT22;9657;45.940;12.840;2023-07-22T05:23:24;29.70;52.20
19050;DHT22;9657;45.940;12.840;2023-07-22T05:25:51;29.70;52.90
19050;DHT22;9657;45.940;12.840;2023-07-22T05:28:19;29.70;52.20
19050;DHT22;9657;45.940;12.840;2023-07-22T05:30:46;29.70;52.20
19050;DHT22;9657;45.940;12.840;2023-07-22T05:33:14;29.70;52.20
19050;DHT22;9657;45.940;12.840;2023-07-22T05:35:41;29.70;52.30
19050;DHT22;9657;45.940;12.840;2023-07-22T05:38:08;29.60;52.20
19050;DHT22;9657;45.940;12.840;2023-07-22T05:40:37;29.60;52.20
19050;DHT22;9657;45.940;12.840;2023-07-22T05:43:04;29.60;52.20
19050;DHT22;9657;45.940;12.840;2023-07-22T05:45:31;29.70;52.30
19050;DHT22;9657;45.940;12.840;2023-07-22T05:47:59;29.70;52.30
19050;DHT22;9657;45.940;12.840;2023-07-22T05:50:26;29.60;52.30
19050;DHT22;9657;45.940;12.840;2023-07-22T05:52:53;29.60;52.40
19050;DHT22;9657;45.940;12.840;2023-07-22T05:55:20;29.60;52.40
19050;DHT22;9657;45.940;12.840;2023-07-22T05:57:49;29.60;52.40
19050;DHT22;9657;45.940;12.840;2023-07-22T06:00:16;29.60;52.40
19050;DHT22;9657;45.940;12.840;2023-07-22T06:02:44;29.60;52.50
19050;DHT22;9657;45.940;12.840;2023-07-22T06:05:11;29.70;52.50
19050;DHT22;9657;45.940;12.840;2023-07-22T06:07:39;29.60;52.40
19050;DHT22;9657;45.940;12.840;2023-07-22T06:10:08;29.70;52.50
19050;DHT22;9657;45.940;12.840;2023-07-22T06:12:36;29.60;52.40
19050;DHT22;9657;45.940;12.840;2023-07-22T06:15:07;29.60;52.40
19050;DHT22;9657;45.940;12.840;2023-07-22T06:17:34;29.60;52.50
19050;DHT22;9657;45.940;12.840;2023-07-22T06:20:02;29.60;52.50
19050;DHT22;9657;45.940;12.840;2023-07-22T06:22:30;29.60;52.50
19050;DHT22;9657;45.940;12.840;2023-07-22T06:24:57;29.70;52.60
19050;DHT22;9657;45.940;12.840;2023-07-22T06:27:24;29.60;52.50
19050;DHT22;9657;45.940;12.840;2023-07-22T06:29:51;29.70;52.60
19050;DHT22;9657;45.940;12.840;2023-07-22T06:32:20;29.60;52.60
19050;DHT22;9657;45.940;12.840;2023-07-22T06:34:47;29.60;52.70
19050;DHT22;9657;45.940;12.840;2023-07-22T06:37:15;29.60;52.70
19050;DHT22;9657;45.940;12.840;2023-07-22T06:39:42;29.60;52.70
19050;DHT22;9657;45.940;12.840;2023-07-22T06:42:09;29.60;52.70
19050;DHT22;9657;45.940;12.840;2023-07-22T06:44:36;29.60;52.60
19050;DHT22;9657;45.940;12.840;2023-07-22T06:47:04;29.70;52.70
19050;DHT22;9657;45.940;12.840;2023-07-22T06:49:33;29.60;52.60
19050;DHT22;9657;45.940;12.840;2023-07-22T06:52:00;29.60;52.60
19050;DHT22;9657;45.940;12.840;2023-07-22T06:54:28;29.60;52.60
19050;DHT22;9657;45.940;12.840;2023-07-22T06:56:55;29.60;52.60
19050;DHT22;9657;45.940;12.840;2023-07-22T06:59:23;29.60;52.70
19050;DHT22;9657;45.940;12.840;2023-07-22T07:01:51;29.60;52.70
19050;DHT22;9657;45.940;12.840;2023-07-22T07:04:19;29.60;52.60
19050;DHT22;9657;45.940;12.840;2023-07-22T07:06:48;29.60;53.40
19050;DHT22;9657;45.940;12.840;2023-07-22T07:09:15;29.60;52.70
19050;DHT22;9657;45.940;12.840;2023-07-22T07:11:42;29.60;52.70
19050;DHT22;9657;45.940;12.840;2023-07-22T07:14:09;29.60;52.80
19050;DHT22;9657;45.940;12.840;2023-07-22T07:16:37;29.60;52.80
19050;DHT22;9657;45.940;12.840;2023-07-22T07:19:04;29.60;52.80
19050;DHT22;9657;45.940;12.840;2023-07-22T07:21:32;29.60;52.80
19050;DHT22;9657;45.940;12.840;2023-07-22T07:24:01;29.60;52.80
19050;DHT22;9657;45.940;12.840;2023-07-22T07:26:28;29.60;52.90
19050;DHT22;9657;45.940;12.840;2023-07-22T07:28:55;29.60;52.90
19050;DHT22;9657;45.940;12.840;2023-07-22T07:31:23;29.60;52.90
19050;DHT22;9657;45.940;12.840;2023-07-22T07:33:50;29.60;52.90
19050;DHT22;9657;45.940;12.840;2023-07-22T07:36:18;29.60;52.70
19050;DHT22;9657;45.940;12.840;2023-07-22T07:38:45;29.60;52.70
19050;DHT22;9657;45.940;12.840;2023-07-22T07:41:14;29.60;52.50
19050;DHT22;9657;45.940;12.840;2023-07-22T07:43:42;29.60;52.40
19050;DHT22;9657;45.940;12.840;2023-07-22T07:46:16;29.60;52.40
19050;DHT22;9657;45.940;12.840;2023-07-22T07:48:45;29.60;52.20
19050;DHT22;9657;45.940;12.840;2023-07-22T07:51:13;29.60;52.20
19050;DHT22;9657;45.940;12.840;2023-07-22T07:53:40;29.60;52.80
19050;DHT22;9657;45.940;12.840;2023-07-22T07:56:09;29.60;52.00
19050;DHT22;9657;45.940;12.840;2023-07-22T07:58:39;29.60;52.00
19050;DHT22;9657;45.940;12.840;2023-07-22T08:01:06;29.60;52.00
19050;DHT22;9657;45.940;12.840;2023-07-22T08:03:35;29.60;51.90
19050;DHT22;9657;45.940;12.840;2023-07-22T08:06:02;29.60;51.90
19050;DHT22;9657;45.940;12.840;2023-07-22T08:08:30;29.60;51.80
19050;DHT22;9657;45.940;12.840;2023-07-22T08:11:01;29.60;51.80
19050;DHT22;9657;45.940;12.840;2023-07-22T08:13:28;29.60;51.90
19050;DHT22;9657;45.940;12.840;2023-07-22T08:15:58;29.60;51.90
19050;DHT22;9657;45.940;12.840;2023-07-22T08:18:26;29.60;51.80
19050;DHT22;9657;45.940;12.840;2023-07-22T08:20:53;29.60;51.80
19050;DHT22;9657;45.940;12.840;2023-07-22T08:23:20;29.60;51.80
19050;DHT22;9657;45.940;12.840;2023-07-22T08:25:47;29.60;51.80
19050;DHT22;9657;45.940;12.840;2023-07-22T08:28:15;29.60;51.70
19050;DHT22;9657;45.940;12.840;2023-07-22T08:30:42;29.60;51.60
19050;DHT22;9657;45.940;12.840;2023-07-22T08:33:12;29.60;51.60
19050;DHT22;9657;45.940;12.840;2023-07-22T08:35:39;29.60;51.60
19050;DHT22;9657;45.940;12.840;2023-07-22T08:38:06;29.60;51.60
19050;DHT22;9657;45.940;12.840;2023-07-22T08:40:34;29.70;51.60
19050;DHT22;9657;45.940;12.840;2023-07-22T08:43:02;29.60;51.60
19050;DHT22;9657;45.940;12.840;2023-07-22T08:45:31;29.60;51.50
19050;DHT22;9657;45.940;12.840;2023-07-22T08:48:02;29.60;51.40
19050;DHT22;9657;45.940;12.840;2023-07-22T08:50:37;29.70;51.30
19050;DHT22;9657;45.940;12.840;2023-07-22T08:53:08;29.60;51.10
19050;DHT22;9657;45.940;12.840;2023-07-22T08:55:35;29.60;50.90
19050;DHT22;9657;45.940;12.840;2023-07-22T08:58:02;29.60;50.90
19050;DHT22;9657;45.940;12.840;2023-07-22T09:00:30;29.60;50.90
19050;DHT22;9657;45.940;12.840;2023-07-22T09:02:59;29.60;50.90
19050;DHT22;9657;45.940;12.840;2023-07-22T09:05:26;29.60;50.90
19050;DHT22;9657;45.940;12.840;2023-07-22T09:07:56;29.70;51.50
19050;DHT22;9657;45.940;12.840;2023-07-22T09:10:24;29.70;50.60
19050;DHT22;9657;45.940;12.840;2023-07-22T09:12:53;29.70;50.70
19050;DHT22;9657;45.940;12.840;2023-07-22T09:15:21;29.70;50.60
19050;DHT22;9657;45.940;12.840;2023-07-22T09:17:49;29.70;50.50
19050;DHT22;9657;45.940;12.840;2023-07-22T09:20:16;29.70;50.30
19050;DHT22;9657;45.940;12.840;2023-07-22T09:22:44;29.70;50.40
19050;DHT22;9657;45.940;12.840;2023-07-22T09:25:17;29.70;50.30
19050;DHT22;9657;45.940;12.840;2023-07-22T09:27:45;29.80;50.40
19050;DHT22;9657;45.940;12.840;2023-07-22T09:30:23;29.80;50.30
19050;DHT22;9657;45.940;12.840;2023-07-22T09:32:52;29.80;50.30
19050;DHT22;9657;45.940;12.840;2023-07-22T09:35:19;29.80;50.30
19050;DHT22;9657;45.940;12.840;2023-07-22T09:37:46;29.80;50.30
19050;DHT22;9657;45.940;12.840;2023-07-22T09:40:17;29.80;50.10
19050;DHT22;9657;45.940;12.840;2023-07-22T09:42:48;29.80;50.20
19050;DHT22;9657;45.940;12.840;2023-07-22T09:45:16;29.80;50.10
19050;DHT22;9657;45.940;12.840;2023-07-22T09:47:43;29.80;50.00
19050;DHT22;9657;45.940;12.840;2023-07-22T09:50:11;29.80;50.00
19050;DHT22;9657;45.940;12.840;2023-07-22T09:52:46;29.80;49.90
19050;DHT22;9657;45.940;12.840;2023-07-22T09:55:19;29.80;49.80
19050;DHT22;9657;45.940;12.840;2023-07-22T09:57:51;29.80;49.70
19050;DHT22;9657;45.940;12.840;2023-07-22T10:00:20;29.80;49.60
19050;DHT22;9657;45.940;12.840;2023-07-22T10:02:48;29.80;49.80
19050;DHT22;9657;45.940;12.840;2023-07-22T10:05:17;29.80;49.90
19050;DHT22;9657;45.940;12.840;2023-07-22T10:07:46;29.80;50.00
19050;DHT22;9657;45.940;12.840;2023-07-22T10:10:15;29.80;49.80
19050;DHT22;9657;45.940;12.840;2023-07-22T10:12:44;29.80;49.90
19050;DHT22;9657;45.940;12.840;2023-07-22T10:15:13;29.80;50.00
19050;DHT22;9657;45.940;12.840;2023-07-22T10:17:40;29.80;49.90
19050;DHT22;9657;45.940;12.840;2023-07-22T10:20:08;29.80;49.80
19050;DHT22;9657;45.940;12.840;2023-07-22T10:22:42;29.80;49.60
19050;DHT22;9657;45.940;12.840;2023-07-22T10:25:11;29.80;49.70
19050;DHT22;9657;45.940;12.840;2023-07-22T10:27:38;29.80;50.50
19050;DHT22;9657;45.940;12.840;2023-07-22T10:30:09;29.80;49.70
19050;DHT22;9657;45.940;12.840;2023-07-22T10:32:38;29.80;49.70
19050;DHT22;9657;45.940;12.840;2023-07-22T10:35:09;29.80;49.80
19050;DHT22;9657;45.940;12.840;2023-07-22T10:37:39;29.80;49.80
19050;DHT22;9657;45.940;12.840;2023-07-22T10:40:18;29.80;49.70
19050;DHT22;9657;45.940;12.840;2023-07-22T10:42:57;29.80;49.90
19050;DHT22;9657;45.940;12.840;2023-07-22T10:45:28;29.80;49.90
19050;DHT22;9657;45.940;12.840;2023-07-22T10:48:03;29.80;50.00
19050;DHT22;9657;45.940;12.840;2023-07-22T10:50:42;29.80;50.00
19050;DHT22;9657;45.940;12.840;2023-07-22T10:53:10;29.80;50.00
19050;DHT22;9657;45.940;12.840;2023-07-22T10:56:07;29.80;50.00
19050;DHT22;9657;45.940;12.840;2023-07-22T10:58:55;29.80;50.00
19050;DHT22;9657;45.940;12.840;2023-07-22T11:01:30;29.80;50.20
19050;DHT22;9657;45.940;12.840;2023-07-22T11:04:12;29.80;50.20
19050;DHT22;9657;45.940;12.840;2023-07-22T11:06:52;29.80;50.20
19050;DHT22;9657;45.940;12.840;2023-07-22T11:09:37;29.80;50.30
19050;DHT22;9657;45.940;12.840;2023-07-22T11:12:06;29.80;50.20
19050;DHT22;9657;45.940;12.840;2023-07-22T11:14:34;29.80;50.20
19050;DHT22;9657;45.940;12.840;2023-07-22T11:17:04;29.80;50.20
19050;DHT22;9657;45.940;12.840;2023-07-22T11:19:32;29.80;50.20
19050;DHT22;9657;45.940;12.840;2023-07-22T11:22:00;29.80;50.20
19050;DHT22;9657;45.940;12.840;2023-07-22T11:24:27;29.80;50.20
19050;DHT22;9657;45.940;12.840;2023-07-22T11:26:54;29.80;50.20
19050;DHT22;9657;45.940;12.840;2023-07-22T11:29:21;29.80;50.30
19050;DHT22;9657;45.940;12.840;2023-07-22T11:31:49;29.80;50.30
19050;DHT22;9657;45.940;12.840;2023-07-22T11:34:19;29.80;50.30
19050;DHT22;9657;45.940;12.840;2023-07-22T11:36:47;29.80;50.40
19050;DHT22;9657;45.940;12.840;2023-07-22T11:39:16;29.80;50.40
19050;DHT22;9657;45.940;12.840;2023-07-22T11:41:45;29.80;50.40
19050;DHT22;9657;45.940;12.840;2023-07-22T11:44:14;29.80;50.40
19050;DHT22;9657;45.940;12.840;2023-07-22T11:46:53;29.70;50.30
19050;DHT22;9657;45.940;12.840;2023-07-22T11:49:27;29.70;50.30
19050;DHT22;9657;45.940;12.840;2023-07-22T11:51:55;29.70;50.40
19050;DHT22;9657;45.940;12.840;2023-07-22T11:54:22;29.70;50.50
19050;DHT22;9657;45.940;12.840;2023-07-22T11:56:50;29.70;50.40
19050;DHT22;9657;45.940;12.840;2023-07-22T11:59:17;29.70;50.50
19050;DHT22;9657;45.940;12.840;2023-07-22T12:01:45;29.70;50.50
19050;DHT22;9657;45.940;12.840;2023-07-22T12:04:13;29.70;50.50
19050;DHT22;9657;45.940;12.840;2023-07-22T12:06:42;29.70;50.60
19050;DHT22;9657;45.940;12.840;2023-07-22T12:09:09;29.70;50.70
19050;DHT22;9657;45.940;12.840;2023-07-22T12:11:37;29.70;50.60
19050;DHT22;9657;45.940;12.840;2023-07-22T12:14:08;29.70;50.80
19050;DHT22;9657;45.940;12.840;2023-07-22T12:16:37;29.70;50.80
19050;DHT22;9657;45.940;12.840;2023-07-22T12:19:04;29.70;50.80
19050;DHT22;9657;45.940;12.840;2023-07-22T12:21:32;29.70;50.80
19050;DHT22;9657;45.940;12.840;2023-07-22T12:24:00;29.70;50.90
19050;DHT22;9657;45.940;12.840;2023-07-22T12:26:30;29.70;50.90
19050;DHT22;9657;45.940;12.840;2023-07-22T12:28:57;29.70;50.90
19050;DHT22;9657;45.940;12.840;2023-07-22T12:31:25;29.70;50.90
19050;DHT22;9657;45.940;12.840;2023-07-22T12:37:14;29.60;50.90
19050;DHT22;9657;45.940;12.840;2023-07-22T12:39:42;29.60;51.10
19050;DHT22;9657;45.940;12.840;2023-07-22T12:42:09;29.60;51.20
19050;DHT22;9657;45.940;12.840;2023-07-22T12:44:36;29.60;51.40
19050;DHT22;9657;45.940;12.840;2023-07-22T12:47:04;29.60;51.60
19050;DHT22;9657;45.940;12.840;2023-07-22T12:49:31;29.60;51.70
19050;DHT22;9657;45.940;12.840;2023-07-22T12:51:58;29.60;51.80
19050;DHT22;9657;45.940;12.840;2023-07-22T12:54:30;29.60;51.90
19050;DHT22;9657;45.940;12.840;2023-07-22T12:56:58;29.60;52.00
19050;DHT22;9657;45.940;12.840;2023-07-22T12:59:26;29.60;52.10
19050;DHT22;9657;45.940;12.840;2023-07-22T13:01:53;29.60;52.10
19050;DHT22;9657;45.940;12.840;2023-07-22T13:04:20;29.60;52.20
19050;DHT22;9657;45.940;12.840;2023-07-22T13:06:47;29.60;52.30
19050;DHT22;9657;45.940;12.840;2023-07-22T13:09:14;29.70;52.50
19050;DHT22;9657;45.940;12.840;2023-07-22T13:11:41;29.60;52.60
19050;DHT22;9657;45.940;12.840;2023-07-22T13:14:09;29.60;52.90
19050;DHT22;9657;45.940;12.840;2023-07-22T13:16:36;29.60;53.00
19050;DHT22;9657;45.940;12.840;2023-07-22T13:19:03;29.60;53.10
19050;DHT22;9657;45.940;12.840;2023-07-22T13:21:30;29.60;53.40
19050;DHT22;9657;45.940;12.840;2023-07-22T13:23:57;29.60;53.60
19050;DHT22;9657;45.940;12.840;2023-07-22T13:26:24;29.70;53.90
19050;DHT22;9657;45.940;12.840;2023-07-22T13:28:51;29.70;54.20
19050;DHT22;9657;45.940;12.840;2023-07-22T13:31:20;29.70;54.20
19050;DHT22;9657;45.940;12.840;2023-07-22T13:33:47;29.70;54.30
19050;DHT22;9657;45.940;12.840;2023-07-22T13:36:14;29.70;54.20
19050;DHT22;9657;45.940;12.840;2023-07-22T13:38:41;29.70;53.90
19050;DHT22;9657;45.940;12.840;2023-07-22T13:41:08;29.70;54.00
19050;DHT22;9657;45.940;12.840;2023-07-22T13:43:35;29.70;54.10
19050;DHT22;9657;45.940;12.840;2023-07-22T13:46:03;29.70;54.20
19050;DHT22;9657;45.940;12.840;2023-07-22T13:48:31;29.70;54.10
19050;DHT22;9657;45.940;12.840;2023-07-22T13:50:58;29.70;54.20
19050;DHT22;9657;45.940;12.840;2023-07-22T13:53:25;29.70;54.10
19050;DHT22;9657;45.940;12.840;2023-07-22T13:55:52;29.70;54.00
19050;DHT22;9657;45.940;12.840;2023-07-22T13:58:19;29.70;54.10
19050;DHT22;9657;45.940;12.840;2023-07-22T14:00:46;29.70;54.10
19050;DHT22;9657;45.940;12.840;2023-07-22T14:03:14;29.70;54.20
19050;DHT22;9657;45.940;12.840;2023-07-22T14:05:42;29.70;54.20
19050;DHT22;9657;45.940;12.840;2023-07-22T14:08:09;29.70;54.40
19050;DHT22;9657;45.940;12.840;2023-07-22T14:10:36;29.70;54.40
19050;DHT22;9657;45.940;12.840;2023-07-22T14:13:03;29.70;54.30
19050;DHT22;9657;45.940;12.840;2023-07-22T14:15:30;29.70;54.30
19050;DHT22;9657;45.940;12.840;2023-07-22T14:17:57;29.70;54.20
19050;DHT22;9657;45.940;12.840;2023-07-22T14:20:25;29.70;54.20
19050;DHT22;9657;45.940;12.840;2023-07-22T14:22:53;29.70;54.20
19050;DHT22;9657;45.940;12.840;2023-07-22T14:25:20;29.70;54.10
19050;DHT22;9657;45.940;12.840;2023-07-22T14:27:47;29.70;54.00
19050;DHT22;9657;45.940;12.840;2023-07-22T14:30:14;29.80;53.90
19050;DHT22;9657;45.940;12.840;2023-07-22T14:32:41;29.80;53.80
19050;DHT22;9657;45.940;12.840;2023-07-22T14:35:09;29.80;54.40
19050;DHT22;9657;45.940;12.840;2023-07-22T14:37:36;29.70;54.10
19050;DHT22;9657;45.940;12.840;2023-07-22T14:40:06;29.70;53.30
19050;DHT22;9657;45.940;12.840;2023-07-22T14:42:35;29.80;53.10
19050;DHT22;9657;45.940;12.840;2023-07-22T14:45:03;29.70;52.80
19050;DHT22;9657;45.940;12.840;2023-07-22T14:47:30;29.80;52.70
19050;DHT22;9657;45.940;12.840;2023-07-22T14:49:57;29.70;52.50
19050;DHT22;9657;45.940;12.840;2023-07-22T14:52:24;29.70;52.40
19050;DHT22;9657;45.940;12.840;2023-07-22T14:54:51;29.70;52.40
19050;DHT22;9657;45.940;12.840;2023-07-22T14:57:20;29.70;52.40
19050;DHT22;9657;45.940;12.840;2023-07-22T14:59:47;29.70;52.40
19050;DHT22;9657;45.940;12.840;2023-07-22T15:02:14;29.70;52.40
19050;DHT22;9657;45.940;12.840;2023-07-22T15:04:41;29.70;52.40
19050;DHT22;9657;45.940;12.840;2023-07-22T15:07:08;29.70;52.50
19050;DHT22;9657;45.940;12.840;2023-07-22T15:09:35;29.70;52.50
19050;DHT22;9657;45.940;12.840;2023-07-22T15:12:02;29.80;52.50
19050;DHT22;9657;45.940;12.840;2023-07-22T15:14:31;29.70;52.50
19050;DHT22;9657;45.940;12.840;2023-07-22T15:16:58;29.80;52.60
19050;DHT22;9657;45.940;12.840;2023-07-22T15:19:25;29.80;52.60
19050;DHT22;9657;45.940;12.840;2023-07-22T15:21:52;29.80;52.60
19050;DHT22;9657;45.940;12.840;2023-07-22T15:24:19;29.80;52.70
19050;DHT22;9657;45.940;12.840;2023-07-22T15:26:46;29.80;52.70
19050;DHT22;9657;45.940;12.840;2023-07-22T15:29:13;29.80;52.70
19050;DHT22;9657;45.940;12.840;2023-07-22T15:31:42;29.80;52.70
19050;DHT22;9657;45.940;12.840;2023-07-22T15:34:09;29.70;52.60
19050;DHT22;9657;45.940;12.840;2023-07-22T15:36:36;29.70;52.60
19050;DHT22;9657;45.940;12.840;2023-07-22T15:39:03;29.80;52.70
19050;DHT22;9657;45.940;12.840;2023-07-22T15:41:30;29.80;53.40
19050;DHT22;9657;45.940;12.840;2023-07-22T15:43:57;29.80;52.70